sensor_id;sensor_type;location;lat;lon;timestamp;P1;durP1;ratioP1;P2;durP2;ratioP2
7205;SDS011;3644;53.480;10.004;2024-01-07T00:00:41;2.67;;;2.47;;
7205;SDS011;3644;53.480;10.004;2024-01-07T00:03:07;2.33;;;2.23;;
7205;SDS011;3644;53.480;10.004;2024-01-07T00:05:32;6.70;;;2.37;;
7205;SDS011;3644;53.480;10.004;2024-01-07T00:08:00;3.63;;;3.30;;
7205;SDS011;3644;53.480;10.004;2024-01-07T00:10:25;3.03;;;2.37;;
7205;SDS011;3644;53.480;10.004;2024-01-07T00:12:51;8.43;;;3.20;;
7205;SDS011;3644;53.480;10.004;2024-01-07T00:15:17;6.00;;;3.20;;
7205;SDS011;3644;53.480;10.004;2024-01-07T00:17:42;2.73;;;2.53;;
7205;SDS011;3644;53.480;10.004;2024-01-07T00:20:08;5.80;;;2.70;;
7205;SDS011;3644;53.480;10.004;2024-01-07T00:22:35;3.10;;;2.47;;
7205;SDS011;3644;53.480;10.004;2024-01-07T00:25:00;11.30;;;3.27;;
7205;SDS011;3644;53.480;10.004;2024-01-07T00:27:26;3.07;;;2.80;;
7205;SDS011;3644;53.480;10.004;2024-01-07T00:29:51;5.70;;;3.10;;
7205;SDS011;3644;53.480;10.004;2024-01-07T00:32:17;6.10;;;3.27;;
7205;SDS011;3644;53.480;10.004;2024-01-07T00:34:43;4.67;;;2.80;;
7205;SDS011;3644;53.480;10.004;2024-01-07T00:37:09;2.20;;;2.10;;
7205;SDS011;3644;53.480;10.004;2024-01-07T00:39:35;3.07;;;2.77;;
7205;SDS011;3644;53.480;10.004;2024-01-07T00:42:00;2.40;;;2.20;;
7205;SDS011;3644;53.480;10.004;2024-01-07T00:44:26;3.63;;;2.17;;
7205;SDS011;3644;53.480;10.004;2024-01-07T00:46:51;2.60;;;2.40;;
7205;SDS011;3644;53.480;10.004;2024-01-07T00:49:17;3.60;;;2.70;;
7205;SDS011;3644;53.480;10.004;2024-01-07T00:51:42;6.57;;;2.00;;
7205;SDS011;3644;53.480;10.004;2024-01-07T00:54:08;3.33;;;2.93;;
7205;SDS011;3644;53.480;10.004;2024-01-07T00:56:33;3.23;;;2.87;;
7205;SDS011;3644;53.480;10.004;2024-01-07T00:58:59;3.77;;;2.73;;
7205;SDS011;3644;53.480;10.004;2024-01-07T01:01:24;3.10;;;2.57;;
7205;SDS011;3644;53.480;10.004;2024-01-07T01:03:50;2.33;;;2.23;;
7205;SDS011;3644;53.480;10.004;2024-01-07T01:06:15;2.97;;;2.70;;
7205;SDS011;3644;53.480;10.004;2024-01-07T01:08:41;3.23;;;2.90;;
7205;SDS011;3644;53.480;10.004;2024-01-07T01:11:08;2.50;;;2.30;;
7205;SDS011;3644;53.480;10.004;2024-01-07T01:13:35;5.43;;;2.23;;
7205;SDS011;3644;53.480;10.004;2024-01-07T01:16:00;3.03;;;2.70;;
7205;SDS011;3644;53.480;10.004;2024-01-07T01:18:26;2.43;;;2.33;;
7205;SDS011;3644;53.480;10.004;2024-01-07T01:20:51;8.63;;;2.60;;
7205;SDS011;3644;53.480;10.004;2024-01-07T01:23:16;3.33;;;2.70;;
7205;SDS011;3644;53.480;10.004;2024-01-07T01:25:42;3.23;;;2.70;;
7205;SDS011;3644;53.480;10.004;2024-01-07T01:28:07;2.37;;;2.17;;
7205;SDS011;3644;53.480;10.004;2024-01-07T01:30:34;8.13;;;2.70;;
7205;SDS011;3644;53.480;10.004;2024-01-07T01:32:59;7.33;;;3.07;;
7205;SDS011;3644;53.480;10.004;2024-01-07T01:35:26;4.90;;;2.43;;
7205;SDS011;3644;53.480;10.004;2024-01-07T01:37:52;2.57;;;2.43;;
7205;SDS011;3644;53.480;10.004;2024-01-07T01:40:19;4.00;;;3.37;;
7205;SDS011;3644;53.480;10.004;2024-01-07T01:42:45;2.83;;;2.63;;
7205;SDS011;3644;53.480;10.004;2024-01-07T01:45:11;4.37;;;2.60;;
7205;SDS011;3644;53.480;10.004;2024-01-07T01:47:37;2.90;;;2.70;;
7205;SDS011;3644;53.480;10.004;2024-01-07T01:50:03;8.67;;;3.70;;
7205;SDS011;3644;53.480;10.004;2024-01-07T01:52:29;3.03;;;2.80;;
7205;SDS011;3644;53.480;10.004;2024-01-07T01:54:54;2.23;;;2.03;;
7205;SDS011;3644;53.480;10.004;2024-01-07T01:57:21;9.67;;;2.57;;
7205;SDS011;3644;53.480;10.004;2024-01-07T01:59:49;2.30;;;2.20;;
7205;SDS011;3644;53.480;10.004;2024-01-07T02:02:15;16.33;;;2.53;;
7205;SDS011;3644;53.480;10.004;2024-01-07T02:04:40;4.47;;;2.60;;
7205;SDS011;3644;53.480;10.004;2024-01-07T02:07:06;4.97;;;2.80;;
7205;SDS011;3644;53.480;10.004;2024-01-07T02:09:32;11.33;;;2.27;;
7205;SDS011;3644;53.480;10.004;2024-01-07T02:12:03;4.93;;;2.50;;
7205;SDS011;3644;53.480;10.004;2024-01-07T02:14:30;2.50;;;2.33;;
7205;SDS011;3644;53.480;10.004;2024-01-07T02:16:55;5.13;;;2.83;;
7205;SDS011;3644;53.480;10.004;2024-01-07T02:19:21;4.90;;;2.83;;
7205;SDS011;3644;53.480;10.004;2024-01-07T02:21:47;2.90;;;2.60;;
7205;SDS011;3644;53.480;10.004;2024-01-07T02:24:15;3.70;;;2.80;;
7205;SDS011;3644;53.480;10.004;2024-01-07T02:26:41;2.67;;;2.50;;
7205;SDS011;3644;53.480;10.004;2024-01-07T02:29:06;3.67;;;2.30;;
7205;SDS011;3644;53.480;10.004;2024-01-07T02:31:32;2.60;;;2.40;;
7205;SDS011;3644;53.480;10.004;2024-01-07T02:33:57;3.47;;;3.10;;
7205;SDS011;3644;53.480;10.004;2024-01-07T02:36:23;3.57;;;2.40;;
7205;SDS011;3644;53.480;10.004;2024-01-07T02:38:48;9.70;;;2.60;;
7205;SDS011;3644;53.480;10.004;2024-01-07T02:41:14;3.40;;;2.80;;
7205;SDS011;3644;53.480;10.004;2024-01-07T02:43:39;2.80;;;2.57;;
7205;SDS011;3644;53.480;10.004;2024-01-07T02:46:05;2.00;;;1.90;;
7205;SDS011;3644;53.480;10.004;2024-01-07T02:48:30;3.43;;;2.50;;
7205;SDS011;3644;53.480;10.004;2024-01-07T02:50:56;3.70;;;2.60;;
7205;SDS011;3644;53.480;10.004;2024-01-07T02:53:21;2.57;;;2.40;;
7205;SDS011;3644;53.480;10.004;2024-01-07T02:55:47;2.70;;;2.53;;
7205;SDS011;3644;53.480;10.004;2024-01-07T02:58:12;7.13;;;2.90;;
7205;SDS011;3644;53.480;10.004;2024-01-07T03:00:37;2.43;;;2.33;;
7205;SDS011;3644;53.480;10.004;2024-01-07T03:03:03;2.80;;;2.60;;
7205;SDS011;3644;53.480;10.004;2024-01-07T03:05:29;2.40;;;2.10;;
7205;SDS011;3644;53.480;10.004;2024-01-07T03:07:57;2.40;;;2.20;;
7205;SDS011;3644;53.480;10.004;2024-01-07T03:10:24;2.17;;;2.07;;
7205;SDS011;3644;53.480;10.004;2024-01-07T03:12:49;6.10;;;3.30;;
7205;SDS011;3644;53.480;10.004;2024-01-07T03:15:15;3.27;;;2.97;;
7205;SDS011;3644;53.480;10.004;2024-01-07T03:17:40;5.53;;;2.40;;
7205;SDS011;3644;53.480;10.004;2024-01-07T03:20:06;2.47;;;2.30;;
7205;SDS011;3644;53.480;10.004;2024-01-07T03:22:32;2.93;;;2.73;;
7205;SDS011;3644;53.480;10.004;2024-01-07T03:24:57;3.00;;;2.80;;
7205;SDS011;3644;53.480;10.004;2024-01-07T03:27:23;4.60;;;3.20;;
7205;SDS011;3644;53.480;10.004;2024-01-07T03:29:48;5.07;;;2.40;;
7205;SDS011;3644;53.480;10.004;2024-01-07T03:32:14;2.10;;;2.00;;
7205;SDS011;3644;53.480;10.004;2024-01-07T03:34:39;3.93;;;2.40;;
7205;SDS011;3644;53.480;10.004;2024-01-07T03:37:05;2.10;;;2.00;;
7205;SDS011;3644;53.480;10.004;2024-01-07T03:39:34;3.17;;;2.97;;
7205;SDS011;3644;53.480;10.004;2024-01-07T03:41:59;2.83;;;2.33;;
7205;SDS011;3644;53.480;10.004;2024-01-07T03:44:25;2.60;;;2.40;;
7205;SDS011;3644;53.480;10.004;2024-01-07T03:46:51;3.93;;;2.03;;
7205;SDS011;3644;53.480;10.004;2024-01-07T03:49:16;2.17;;;2.07;;
7205;SDS011;3644;53.480;10.004;2024-01-07T03:51:45;2.63;;;2.40;;
7205;SDS011;3644;53.480;10.004;2024-01-07T03:54:11;9.13;;;2.70;;
7205;SDS011;3644;53.480;10.004;2024-01-07T03:56:37;3.20;;;3.00;;
7205;SDS011;3644;53.480;10.004;2024-01-07T03:59:02;2.50;;;2.30;;
7205;SDS011;3644;53.480;10.004;2024-01-07T04:01:28;2.90;;;2.03;;
7205;SDS011;3644;53.480;10.004;2024-01-07T04:03:53;2.33;;;2.23;;
7205;SDS011;3644;53.480;10.004;2024-01-07T04:06:19;4.10;;;2.83;;
7205;SDS011;3644;53.480;10.004;2024-01-07T04:08:44;4.57;;;2.83;;
7205;SDS011;3644;53.480;10.004;2024-01-07T04:11:10;2.40;;;2.30;;
7205;SDS011;3644;53.480;10.004;2024-01-07T04:13:35;2.70;;;2.37;;
7205;SDS011;3644;53.480;10.004;2024-01-07T04:16:01;3.93;;;2.43;;
7205;SDS011;3644;53.480;10.004;2024-01-07T04:18:27;2.30;;;2.03;;
7205;SDS011;3644;53.480;10.004;2024-01-07T04:20:53;2.57;;;2.37;;
7205;SDS011;3644;53.480;10.004;2024-01-07T04:23:18;3.10;;;2.20;;
7205;SDS011;3644;53.480;10.004;2024-01-07T04:25:44;5.60;;;2.17;;
7205;SDS011;3644;53.480;10.004;2024-01-07T04:28:10;2.40;;;2.20;;
7205;SDS011;3644;53.480;10.004;2024-01-07T04:30:35;9.10;;;2.30;;
7205;SDS011;3644;53.480;10.004;2024-01-07T04:33:01;1.90;;;1.80;;
7205;SDS011;3644;53.480;10.004;2024-01-07T04:35:27;1.90;;;1.80;;
7205;SDS011;3644;53.480;10.004;2024-01-07T04:37:52;8.53;;;2.37;;
7205;SDS011;3644;53.480;10.004;2024-01-07T04:40:17;2.80;;;2.53;;
7205;SDS011;3644;53.480;10.004;2024-01-07T04:42:43;9.77;;;2.37;;
7205;SDS011;3644;53.480;10.004;2024-01-07T04:45:08;8.33;;;3.03;;
7205;SDS011;3644;53.480;10.004;2024-01-07T04:47:34;7.13;;;2.47;;
7205;SDS011;3644;53.480;10.004;2024-01-07T04:49:59;16.43;;;2.80;;
7205;SDS011;3644;53.480;10.004;2024-01-07T04:52:25;2.87;;;2.67;;
7205;SDS011;3644;53.480;10.004;2024-01-07T04:54:51;4.00;;;2.30;;
7205;SDS011;3644;53.480;10.004;2024-01-07T04:57:18;2.10;;;2.00;;
7205;SDS011;3644;53.480;10.004;2024-01-07T04:59:44;6.10;;;2.30;;
7205;SDS011;3644;53.480;10.004;2024-01-07T05:02:10;2.40;;;2.30;;
7205;SDS011;3644;53.480;10.004;2024-01-07T05:04:36;3.97;;;2.50;;
7205;SDS011;3644;53.480;10.004;2024-01-07T05:07:02;2.97;;;2.77;;
7205;SDS011;3644;53.480;10.004;2024-01-07T05:09:28;3.07;;;2.87;;
7205;SDS011;3644;53.480;10.004;2024-01-07T05:11:53;4.20;;;2.60;;
7205;SDS011;3644;53.480;10.004;2024-01-07T05:14:19;2.80;;;2.60;;
7205;SDS011;3644;53.480;10.004;2024-01-07T05:16:45;3.40;;;2.47;;
7205;SDS011;3644;53.480;10.004;2024-01-07T05:19:10;2.60;;;2.40;;
7205;SDS011;3644;53.480;10.004;2024-01-07T05:21:36;2.60;;;2.33;;
7205;SDS011;3644;53.480;10.004;2024-01-07T05:24:02;2.90;;;2.30;;
7205;SDS011;3644;53.480;10.004;2024-01-07T05:26:27;2.37;;;2.17;;
7205;SDS011;3644;53.480;10.004;2024-01-07T05:28:53;5.73;;;1.80;;
7205;SDS011;3644;53.480;10.004;2024-01-07T05:31:18;2.70;;;2.20;;
7205;SDS011;3644;53.480;10.004;2024-01-07T05:33:44;2.67;;;2.47;;
7205;SDS011;3644;53.480;10.004;2024-01-07T05:36:11;2.67;;;2.57;;
7205;SDS011;3644;53.480;10.004;2024-01-07T05:38:36;3.23;;;2.43;;
7205;SDS011;3644;53.480;10.004;2024-01-07T05:41:02;4.80;;;3.80;;
7205;SDS011;3644;53.480;10.004;2024-01-07T05:43:28;2.30;;;2.10;;
7205;SDS011;3644;53.480;10.004;2024-01-07T05:45:53;2.10;;;2.00;;
7205;SDS011;3644;53.480;10.004;2024-01-07T05:48:21;5.80;;;2.53;;
7205;SDS011;3644;53.480;10.004;2024-01-07T05:50:47;3.17;;;2.63;;
7205;SDS011;3644;53.480;10.004;2024-01-07T05:53:13;2.33;;;2.20;;
7205;SDS011;3644;53.480;10.004;2024-01-07T05:55:38;2.50;;;2.30;;
7205;SDS011;3644;53.480;10.004;2024-01-07T05:58:04;5.47;;;2.97;;
7205;SDS011;3644;53.480;10.004;2024-01-07T06:00:29;2.93;;;2.63;;
7205;SDS011;3644;53.480;10.004;2024-01-07T06:02:55;3.23;;;2.53;;
7205;SDS011;3644;53.480;10.004;2024-01-07T06:05:21;8.67;;;2.77;;
7205;SDS011;3644;53.480;10.004;2024-01-07T06:07:46;4.13;;;2.43;;
7205;SDS011;3644;53.480;10.004;2024-01-07T06:10:12;2.87;;;2.67;;
7205;SDS011;3644;53.480;10.004;2024-01-07T06:12:37;4.87;;;2.27;;
7205;SDS011;3644;53.480;10.004;2024-01-07T06:15:03;2.30;;;2.20;;
7205;SDS011;3644;53.480;10.004;2024-01-07T06:17:30;3.10;;;2.90;;
7205;SDS011;3644;53.480;10.004;2024-01-07T06:19:55;2.40;;;2.30;;
7205;SDS011;3644;53.480;10.004;2024-01-07T06:22:21;2.80;;;2.23;;
7205;SDS011;3644;53.480;10.004;2024-01-07T06:24:47;12.53;;;5.60;;
7205;SDS011;3644;53.480;10.004;2024-01-07T06:27:13;2.57;;;2.37;;
7205;SDS011;3644;53.480;10.004;2024-01-07T06:29:38;2.97;;;2.77;;
7205;SDS011;3644;53.480;10.004;2024-01-07T06:32:04;3.03;;;2.80;;
7205;SDS011;3644;53.480;10.004;2024-01-07T06:34:29;8.30;;;2.63;;
7205;SDS011;3644;53.480;10.004;2024-01-07T06:36:55;2.53;;;2.43;;
7205;SDS011;3644;53.480;10.004;2024-01-07T06:39:21;4.20;;;2.83;;
7205;SDS011;3644;53.480;10.004;2024-01-07T06:41:46;2.90;;;2.70;;
7205;SDS011;3644;53.480;10.004;2024-01-07T06:44:12;3.90;;;2.90;;
7205;SDS011;3644;53.480;10.004;2024-01-07T06:46:37;4.23;;;1.87;;
7205;SDS011;3644;53.480;10.004;2024-01-07T06:49:03;1.63;;;1.57;;
7205;SDS011;3644;53.480;10.004;2024-01-07T06:51:28;2.83;;;2.50;;
7205;SDS011;3644;53.480;10.004;2024-01-07T06:53:54;2.13;;;1.93;;
7205;SDS011;3644;53.480;10.004;2024-01-07T06:56:19;2.87;;;2.40;;
7205;SDS011;3644;53.480;10.004;2024-01-07T06:58:45;2.20;;;2.10;;
7205;SDS011;3644;53.480;10.004;2024-01-07T07:01:10;1.93;;;1.73;;
7205;SDS011;3644;53.480;10.004;2024-01-07T07:03:36;2.77;;;2.00;;
7205;SDS011;3644;53.480;10.004;2024-01-07T07:06:02;2.60;;;2.40;;
7205;SDS011;3644;53.480;10.004;2024-01-07T07:08:27;2.30;;;2.03;;
7205;SDS011;3644;53.480;10.004;2024-01-07T07:10:53;2.03;;;1.90;;
7205;SDS011;3644;53.480;10.004;2024-01-07T07:13:18;3.87;;;3.40;;
7205;SDS011;3644;53.480;10.004;2024-01-07T07:15:44;4.47;;;2.27;;
7205;SDS011;3644;53.480;10.004;2024-01-07T07:18:09;3.33;;;1.70;;
7205;SDS011;3644;53.480;10.004;2024-01-07T07:20:35;4.70;;;2.40;;
7205;SDS011;3644;53.480;10.004;2024-01-07T07:23:00;5.83;;;2.43;;
7205;SDS011;3644;53.480;10.004;2024-01-07T07:25:26;2.97;;;2.67;;
7205;SDS011;3644;53.480;10.004;2024-01-07T07:27:51;7.60;;;3.80;;
7205;SDS011;3644;53.480;10.004;2024-01-07T07:30:17;3.00;;;2.70;;
7205;SDS011;3644;53.480;10.004;2024-01-07T07:32:43;5.60;;;2.57;;
7205;SDS011;3644;53.480;10.004;2024-01-07T07:35:09;4.67;;;3.20;;
7205;SDS011;3644;53.480;10.004;2024-01-07T07:37:34;3.17;;;2.83;;
7205;SDS011;3644;53.480;10.004;2024-01-07T07:40:00;4.03;;;3.50;;
7205;SDS011;3644;53.480;10.004;2024-01-07T07:42:25;6.70;;;3.20;;
7205;SDS011;3644;53.480;10.004;2024-01-07T07:44:51;3.03;;;2.57;;
7205;SDS011;3644;53.480;10.004;2024-01-07T07:47:16;3.23;;;2.93;;
7205;SDS011;3644;53.480;10.004;2024-01-07T07:49:43;3.43;;;3.13;;
7205;SDS011;3644;53.480;10.004;2024-01-07T07:52:08;3.80;;;3.37;;
7205;SDS011;3644;53.480;10.004;2024-01-07T07:54:34;4.90;;;3.63;;
7205;SDS011;3644;53.480;10.004;2024-01-07T07:56:59;6.90;;;4.77;;
7205;SDS011;3644;53.480;10.004;2024-01-07T07:59:25;6.03;;;3.40;;
7205;SDS011;3644;53.480;10.004;2024-01-07T08:01:50;6.43;;;3.90;;
7205;SDS011;3644;53.480;10.004;2024-01-07T08:04:16;7.27;;;3.97;;
7205;SDS011;3644;53.480;10.004;2024-01-07T08:06:41;3.83;;;3.40;;
7205;SDS011;3644;53.480;10.004;2024-01-07T08:09:07;7.07;;;4.40;;
7205;SDS011;3644;53.480;10.004;2024-01-07T08:11:33;5.30;;;4.13;;
7205;SDS011;3644;53.480;10.004;2024-01-07T08:13:59;6.40;;;3.67;;
7205;SDS011;3644;53.480;10.004;2024-01-07T08:16:26;9.27;;;3.97;;
7205;SDS011;3644;53.480;10.004;2024-01-07T08:18:52;8.73;;;4.27;;
7205;SDS011;3644;53.480;10.004;2024-01-07T08:21:17;9.03;;;4.43;;
7205;SDS011;3644;53.480;10.004;2024-01-07T08:23:43;5.83;;;4.03;;
7205;SDS011;3644;53.480;10.004;2024-01-07T08:26:08;7.27;;;3.70;;
7205;SDS011;3644;53.480;10.004;2024-01-07T08:28:34;8.70;;;3.80;;
7205;SDS011;3644;53.480;10.004;2024-01-07T08:30:59;5.07;;;3.60;;
7205;SDS011;3644;53.480;10.004;2024-01-07T08:33:24;5.57;;;3.77;;
7205;SDS011;3644;53.480;10.004;2024-01-07T08:35:50;8.77;;;3.57;;
7205;SDS011;3644;53.480;10.004;2024-01-07T08:38:16;21.73;;;4.00;;
7205;SDS011;3644;53.480;10.004;2024-01-07T08:40:41;3.90;;;3.57;;
7205;SDS011;3644;53.480;10.004;2024-01-07T08:43:07;3.83;;;3.50;;
7205;SDS011;3644;53.480;10.004;2024-01-07T08:45:32;6.53;;;3.80;;
7205;SDS011;3644;53.480;10.004;2024-01-07T08:47:57;4.13;;;3.60;;
7205;SDS011;3644;53.480;10.004;2024-01-07T08:50:23;7.30;;;4.20;;
7205;SDS011;3644;53.480;10.004;2024-01-07T08:52:49;4.10;;;3.50;;
7205;SDS011;3644;53.480;10.004;2024-01-07T08:55:14;3.30;;;3.07;;
7205;SDS011;3644;53.480;10.004;2024-01-07T08:57:40;6.00;;;4.30;;
7205;SDS011;3644;53.480;10.004;2024-01-07T09:00:06;9.73;;;4.10;;
7205;SDS011;3644;53.480;10.004;2024-01-07T09:02:33;7.60;;;4.07;;
7205;SDS011;3644;53.480;10.004;2024-01-07T09:04:58;4.00;;;3.40;;
7205;SDS011;3644;53.480;10.004;2024-01-07T09:07:24;5.90;;;4.20;;
7205;SDS011;3644;53.480;10.004;2024-01-07T09:09:49;5.80;;;4.07;;
7205;SDS011;3644;53.480;10.004;2024-01-07T09:12:15;10.53;;;4.07;;
7205;SDS011;3644;53.480;10.004;2024-01-07T09:14:40;6.27;;;3.47;;
7205;SDS011;3644;53.480;10.004;2024-01-07T09:17:06;7.50;;;4.07;;
7205;SDS011;3644;53.480;10.004;2024-01-07T09:19:32;4.87;;;3.40;;
7205;SDS011;3644;53.480;10.004;2024-01-07T09:21:57;9.37;;;4.10;;
7205;SDS011;3644;53.480;10.004;2024-01-07T09:24:23;4.10;;;3.10;;
7205;SDS011;3644;53.480;10.004;2024-01-07T09:26:49;5.10;;;3.43;;
7205;SDS011;3644;53.480;10.004;2024-01-07T09:29:14;5.73;;;3.37;;
7205;SDS011;3644;53.480;10.004;2024-01-07T09:31:40;4.53;;;3.53;;
7205;SDS011;3644;53.480;10.004;2024-01-07T09:34:05;8.50;;;4.50;;
7205;SDS011;3644;53.480;10.004;2024-01-07T09:36:31;9.57;;;5.00;;
7205;SDS011;3644;53.480;10.004;2024-01-07T09:38:57;7.20;;;4.60;;
7205;SDS011;3644;53.480;10.004;2024-01-07T09:41:23;11.03;;;5.07;;
7205;SDS011;3644;53.480;10.004;2024-01-07T09:43:49;5.47;;;4.17;;
7205;SDS011;3644;53.480;10.004;2024-01-07T09:46:16;7.10;;;4.33;;
7205;SDS011;3644;53.480;10.004;2024-01-07T09:48:42;11.60;;;3.23;;
7205;SDS011;3644;53.480;10.004;2024-01-07T09:51:08;5.67;;;4.20;;
7205;SDS011;3644;53.480;10.004;2024-01-07T09:53:36;4.53;;;3.43;;
7205;SDS011;3644;53.480;10.004;2024-01-07T09:56:12;7.60;;;4.53;;
7205;SDS011;3644;53.480;10.004;2024-01-07T09:58:51;7.50;;;4.57;;
7205;SDS011;3644;53.480;10.004;2024-01-07T10:01:19;4.33;;;3.40;;
7205;SDS011;3644;53.480;10.004;2024-01-07T10:03:45;8.33;;;4.33;;
7205;SDS011;3644;53.480;10.004;2024-01-07T10:06:11;4.10;;;3.70;;
7205;SDS011;3644;53.480;10.004;2024-01-07T10:08:38;5.67;;;3.90;;
7205;SDS011;3644;53.480;10.004;2024-01-07T10:11:03;8.33;;;3.30;;
7205;SDS011;3644;53.480;10.004;2024-01-07T10:13:29;4.10;;;3.20;;
7205;SDS011;3644;53.480;10.004;2024-01-07T10:15:55;5.53;;;3.40;;
7205;SDS011;3644;53.480;10.004;2024-01-07T10:18:21;4.70;;;3.10;;
7205;SDS011;3644;53.480;10.004;2024-01-07T10:20:47;10.37;;;3.57;;
7205;SDS011;3644;53.480;10.004;2024-01-07T10:23:17;3.30;;;3.00;;
7205;SDS011;3644;53.480;10.004;2024-01-07T10:25:44;4.77;;;3.40;;
7205;SDS011;3644;53.480;10.004;2024-01-07T10:28:09;4.30;;;3.90;;
7205;SDS011;3644;53.480;10.004;2024-01-07T10:30:38;5.53;;;3.43;;
7205;SDS011;3644;53.480;10.004;2024-01-07T10:33:05;8.33;;;3.87;;
7205;SDS011;3644;53.480;10.004;2024-01-07T10:35:32;3.50;;;3.20;;
7205;SDS011;3644;53.480;10.004;2024-01-07T10:38:00;4.70;;;4.03;;
7205;SDS011;3644;53.480;10.004;2024-01-07T10:40:26;3.87;;;3.27;;
7205;SDS011;3644;53.480;10.004;2024-01-07T10:42:52;4.67;;;3.17;;
7205;SDS011;3644;53.480;10.004;2024-01-07T10:45:19;10.50;;;4.00;;
7205;SDS011;3644;53.480;10.004;2024-01-07T10:47:48;4.87;;;3.70;;
7205;SDS011;3644;53.480;10.004;2024-01-07T10:50:15;10.50;;;3.00;;
7205;SDS011;3644;53.480;10.004;2024-01-07T10:52:42;7.23;;;3.97;;
7205;SDS011;3644;53.480;10.004;2024-01-07T10:55:11;4.13;;;3.60;;
7205;SDS011;3644;53.480;10.004;2024-01-07T10:57:43;15.80;;;5.20;;
7205;SDS011;3644;53.480;10.004;2024-01-07T11:00:16;5.10;;;4.60;;
7205;SDS011;3644;53.480;10.004;2024-01-07T11:08:18;3.63;;;3.23;;
7205;SDS011;3644;53.480;10.004;2024-01-07T11:10:50;4.20;;;3.80;;
7205;SDS011;3644;53.480;10.004;2024-01-07T11:13:32;4.73;;;3.60;;
7205;SDS011;3644;53.480;10.004;2024-01-07T11:16:03;5.50;;;3.53;;
7205;SDS011;3644;53.480;10.004;2024-01-07T11:18:30;3.80;;;3.03;;
7205;SDS011;3644;53.480;10.004;2024-01-07T11:20:59;5.00;;;3.53;;
7205;SDS011;3644;53.480;10.004;2024-01-07T11:23:29;9.97;;;3.67;;
7205;SDS011;3644;53.480;10.004;2024-01-07T11:25:57;16.43;;;3.50;;
7205;SDS011;3644;53.480;10.004;2024-01-07T11:28:42;13.43;;;4.20;;
7205;SDS011;3644;53.480;10.004;2024-01-07T11:31:08;5.13;;;4.50;;
7205;SDS011;3644;53.480;10.004;2024-01-07T11:33:34;4.40;;;4.00;;
7205;SDS011;3644;53.480;10.004;2024-01-07T11:36:02;4.17;;;3.50;;
7205;SDS011;3644;53.480;10.004;2024-01-07T11:38:29;6.47;;;3.33;;
7205;SDS011;3644;53.480;10.004;2024-01-07T11:40:56;4.90;;;3.40;;
7205;SDS011;3644;53.480;10.004;2024-01-07T11:43:22;3.70;;;3.03;;
7205;SDS011;3644;53.480;10.004;2024-01-07T11:45:50;4.87;;;3.90;;
7205;SDS011;3644;53.480;10.004;2024-01-07T11:48:17;5.47;;;3.23;;
7205;SDS011;3644;53.480;10.004;2024-01-07T11:50:43;3.23;;;2.93;;
7205;SDS011;3644;53.480;10.004;2024-01-07T11:53:08;3.90;;;3.03;;
7205;SDS011;3644;53.480;10.004;2024-01-07T11:55:36;4.83;;;3.27;;
7205;SDS011;3644;53.480;10.004;2024-01-07T11:58:02;5.57;;;3.60;;
7205;SDS011;3644;53.480;10.004;2024-01-07T12:00:30;10.33;;;3.60;;
7205;SDS011;3644;53.480;10.004;2024-01-07T12:02:56;6.60;;;2.90;;
7205;SDS011;3644;53.480;10.004;2024-01-07T12:05:22;3.60;;;3.00;;
7205;SDS011;3644;53.480;10.004;2024-01-07T12:07:47;3.57;;;3.27;;
7205;SDS011;3644;53.480;10.004;2024-01-07T12:10:13;6.13;;;3.97;;
7205;SDS011;3644;53.480;10.004;2024-01-07T12:12:42;9.63;;;3.40;;
7205;SDS011;3644;53.480;10.004;2024-01-07T12:15:08;5.63;;;4.03;;
7205;SDS011;3644;53.480;10.004;2024-01-07T12:17:34;4.30;;;3.90;;
7205;SDS011;3644;53.480;10.004;2024-01-07T12:20:00;3.87;;;3.47;;
7205;SDS011;3644;53.480;10.004;2024-01-07T12:22:29;9.40;;;3.90;;
7205;SDS011;3644;53.480;10.004;2024-01-07T12:25:02;5.33;;;3.17;;
7205;SDS011;3644;53.480;10.004;2024-01-07T12:27:28;3.78;;;2.80;;
7205;SDS011;3644;53.480;10.004;2024-01-07T12:29:55;4.43;;;4.00;;
7205;SDS011;3644;53.480;10.004;2024-01-07T12:32:30;4.63;;;3.40;;
7205;SDS011;3644;53.480;10.004;2024-01-07T12:35:01;3.83;;;3.53;;
7205;SDS011;3644;53.480;10.004;2024-01-07T12:37:27;6.27;;;4.20;;
7205;SDS011;3644;53.480;10.004;2024-01-07T12:39:53;5.53;;;4.10;;
7205;SDS011;3644;53.480;10.004;2024-01-07T12:42:19;12.63;;;5.60;;
7205;SDS011;3644;53.480;10.004;2024-01-07T12:44:47;9.63;;;5.10;;
7205;SDS011;3644;53.480;10.004;2024-01-07T12:47:13;9.77;;;4.37;;
7205;SDS011;3644;53.480;10.004;2024-01-07T12:49:39;4.97;;;3.43;;
7205;SDS011;3644;53.480;10.004;2024-01-07T12:52:05;3.90;;;3.57;;
7205;SDS011;3644;53.480;10.004;2024-01-07T12:54:30;6.67;;;3.53;;
7205;SDS011;3644;53.480;10.004;2024-01-07T12:56:56;4.60;;;3.70;;
7205;SDS011;3644;53.480;10.004;2024-01-07T12:59:21;6.70;;;2.57;;
7205;SDS011;3644;53.480;10.004;2024-01-07T13:01:46;3.17;;;2.83;;
7205;SDS011;3644;53.480;10.004;2024-01-07T13:04:12;4.20;;;2.53;;
7205;SDS011;3644;53.480;10.004;2024-01-07T13:06:38;4.87;;;2.97;;
7205;SDS011;3644;53.480;10.004;2024-01-07T13:09:03;6.27;;;3.47;;
7205;SDS011;3644;53.480;10.004;2024-01-07T13:11:30;6.87;;;3.70;;
7205;SDS011;3644;53.480;10.004;2024-01-07T13:13:56;7.93;;;3.53;;
7205;SDS011;3644;53.480;10.004;2024-01-07T13:16:25;4.63;;;3.27;;
7205;SDS011;3644;53.480;10.004;2024-01-07T13:18:51;3.60;;;3.30;;
7205;SDS011;3644;53.480;10.004;2024-01-07T13:21:16;6.03;;;3.03;;
7205;SDS011;3644;53.480;10.004;2024-01-07T13:23:42;9.83;;;3.57;;
7205;SDS011;3644;53.480;10.004;2024-01-07T13:26:09;4.00;;;3.60;;
7205;SDS011;3644;53.480;10.004;2024-01-07T13:28:37;9.27;;;4.33;;
7205;SDS011;3644;53.480;10.004;2024-01-07T13:31:03;3.67;;;3.40;;
7205;SDS011;3644;53.480;10.004;2024-01-07T13:33:29;7.10;;;3.57;;
7205;SDS011;3644;53.480;10.004;2024-01-07T13:35:54;4.80;;;2.67;;
7205;SDS011;3644;53.480;10.004;2024-01-07T13:38:20;4.53;;;3.40;;
7205;SDS011;3644;53.480;10.004;2024-01-07T13:40:46;4.10;;;2.57;;
7205;SDS011;3644;53.480;10.004;2024-01-07T13:43:12;5.17;;;3.37;;
7205;SDS011;3644;53.480;10.004;2024-01-07T13:45:37;4.23;;;3.17;;
7205;SDS011;3644;53.480;10.004;2024-01-07T13:48:03;3.30;;;3.00;;
7205;SDS011;3644;53.480;10.004;2024-01-07T13:50:28;8.20;;;3.07;;
7205;SDS011;3644;53.480;10.004;2024-01-07T13:52:54;3.47;;;2.97;;
7205;SDS011;3644;53.480;10.004;2024-01-07T13:55:19;5.03;;;2.67;;
7205;SDS011;3644;53.480;10.004;2024-01-07T13:57:45;3.33;;;3.00;;
7205;SDS011;3644;53.480;10.004;2024-01-07T14:00:10;2.67;;;2.47;;
7205;SDS011;3644;53.480;10.004;2024-01-07T14:02:43;3.70;;;2.90;;
7205;SDS011;3644;53.480;10.004;2024-01-07T14:05:10;3.63;;;3.33;;
7205;SDS011;3644;53.480;10.004;2024-01-07T14:07:36;4.50;;;2.47;;
7205;SDS011;3644;53.480;10.004;2024-01-07T14:10:06;3.83;;;3.33;;
7205;SDS011;3644;53.480;10.004;2024-01-07T14:12:32;3.50;;;3.20;;
7205;SDS011;3644;53.480;10.004;2024-01-07T14:14:58;5.47;;;3.47;;
7205;SDS011;3644;53.480;10.004;2024-01-07T14:17:26;5.90;;;2.40;;
7205;SDS011;3644;53.480;10.004;2024-01-07T14:19:52;3.63;;;2.67;;
7205;SDS011;3644;53.480;10.004;2024-01-07T14:22:19;2.70;;;2.50;;
7205;SDS011;3644;53.480;10.004;2024-01-07T14:24:45;6.60;;;3.33;;
7205;SDS011;3644;53.480;10.004;2024-01-07T14:27:11;5.73;;;3.20;;
7205;SDS011;3644;53.480;10.004;2024-01-07T14:29:36;3.20;;;2.90;;
7205;SDS011;3644;53.480;10.004;2024-01-07T14:32:02;5.17;;;2.87;;
7205;SDS011;3644;53.480;10.004;2024-01-07T14:34:29;2.60;;;2.40;;
7205;SDS011;3644;53.480;10.004;2024-01-07T14:36:55;2.63;;;2.47;;
7205;SDS011;3644;53.480;10.004;2024-01-07T14:39:20;3.20;;;2.93;;
7205;SDS011;3644;53.480;10.004;2024-01-07T14:41:46;3.57;;;2.80;;
7205;SDS011;3644;53.480;10.004;2024-01-07T14:44:11;2.27;;;2.10;;
7205;SDS011;3644;53.480;10.004;2024-01-07T14:46:37;5.70;;;2.57;;
7205;SDS011;3644;53.480;10.004;2024-01-07T14:49:03;3.93;;;3.10;;
7205;SDS011;3644;53.480;10.004;2024-01-07T14:51:32;3.03;;;2.73;;
7205;SDS011;3644;53.480;10.004;2024-01-07T14:53:57;4.17;;;2.60;;
7205;SDS011;3644;53.480;10.004;2024-01-07T14:56:23;4.83;;;4.17;;
7205;SDS011;3644;53.480;10.004;2024-01-07T14:58:49;3.50;;;3.17;;